Página principal
METAR-TAF:

METAR-TAF

Aeroportos :

Ardmore Downtown Executive Airport

Ardmore, Oklahoma, Estados Unidos

latitude: 34-08-49N, longitude: 097-07-21W, altura: 257 m

Observação actual do tempo

O boletim foi feito há 20 minutos, às 05:55 UTC
Vento calmo
Temperatura 0°C
Humidade 86%
Pressão 1028 hPa
Visibilidade: 16.1 km
Céu limpo

METAR: K1F0 100555Z AUTO 00000KT 10SM CLR 00/M02 A3035 RMK AO2 TSNO

Hora: 00:15 (06:15 UTC)


TAF: em falta

Observações e previsões do tempo de mais de 4000 aeroportos (mensagens METAR e TAF).

As estações disponíveis são os pontos amarelos e vermelhos sobre o mapa.

Mova o rato sobre o mapa para ver o nome da estação.

Depois clique no ponto para visualizar as observações e previsões meteorológicas.

Para alterar o mapa : clique nos botões verdes com uma cruz preta para aumentar o zoom; no botão verde com uma pitada de zoom; ou nas setas verdes para mapas adjacentes.


METAR-TAF: